createdAt,value
2023-04-15T00:00:00.562Z,97.06
2023-04-15T00:01:00.557Z,97.06
2023-04-15T00:02:00.651Z,97.06
2023-04-15T00:03:00.694Z,97.16
2023-04-15T00:04:00.651Z,97.27
2023-04-15T00:05:00.526Z,97.27
2023-04-15T00:06:00.490Z,97.16
2023-04-15T00:07:00.470Z,97.16
2023-04-15T00:08:00.475Z,97.06
2023-04-15T00:09:00.764Z,97.16
2023-04-15T00:10:00.429Z,97.27
2023-04-15T00:11:00.437Z,97.41
2023-04-15T00:12:00.444Z,97.41
2023-04-15T00:13:00.426Z,97.41
2023-04-15T00:14:00.383Z,97.41
2023-04-15T00:15:00.377Z,97.47
2023-04-15T00:16:00.346Z,97.68
2023-04-15T00:17:00.358Z,97.78
2023-04-15T00:18:00.383Z,97.78
2023-04-15T00:19:00.585Z,97.78
2023-04-15T00:20:00.288Z,97.78
2023-04-15T00:21:00.331Z,97.78
2023-04-15T00:22:00.309Z,97.68
2023-04-15T00:23:00.259Z,97.68
2023-04-15T00:24:00.269Z,97.78
2023-04-15T00:25:00.263Z,97.68
2023-04-15T00:26:00.244Z,97.68
2023-04-15T00:27:00.204Z,97.68
2023-04-15T00:28:00.201Z,97.78
2023-04-15T00:29:00.336Z,97.78
2023-04-15T00:30:00.228Z,97.68
2023-04-15T00:31:00.251Z,97.68
2023-04-15T00:32:00.131Z,97.58
2023-04-15T00:33:00.218Z,97.58
2023-04-15T00:34:00.126Z,97.47
2023-04-15T00:35:00.131Z,97.37
2023-04-15T00:36:00.084Z,97.47
2023-04-15T00:37:00.078Z,97.58
2023-04-15T00:38:00.068Z,97.58
2023-04-15T00:39:00.305Z,97.58
2023-04-15T00:40:00.059Z,97.58
2023-04-15T00:41:00.024Z,97.58
2023-04-15T00:41:59.990Z,97.58
2023-04-15T00:43:00.008Z,97.78
2023-04-15T00:44:00.034Z,97.78
2023-04-15T00:44:59.953Z,97.58
2023-04-15T00:46:00.021Z,97.47
2023-04-15T00:46:59.932Z,97.47
2023-04-15T00:47:59.981Z,97.37
2023-04-15T00:49:00.170Z,97.37
2023-04-15T00:49:59.902Z,97.47
2023-04-15T00:50:59.889Z,97.58
2023-04-15T00:51:59.893Z,97.58
2023-04-15T00:52:59.882Z,97.58
2023-04-15T00:53:59.852Z,97.68
2023-04-15T00:54:59.837Z,97.78
2023-04-15T00:55:59.864Z,97.78
2023-04-15T00:56:59.805Z,97.78
2023-04-15T00:57:59.785Z,97.89
2023-04-15T00:58:59.997Z,97.89
2023-04-15T00:59:59.762Z,97.89
2023-04-15T01:00:59.776Z,97.68
2023-04-15T01:01:59.821Z,97.37
2023-04-15T01:02:59.955Z,97.27
2023-04-15T01:03:59.806Z,97.37
2023-04-15T01:04:59.707Z,97.47
2023-04-15T01:06:00.908Z,97.37
2023-04-15T01:06:59.677Z,97.37
2023-04-15T01:07:59.661Z,97.27
2023-04-15T01:08:59.912Z,97.16
2023-04-15T01:09:59.631Z,97.06
2023-04-15T01:10:59.650Z,97.16
2023-04-15T01:11:59.660Z,97.16
2023-04-15T01:12:59.585Z,97.16
2023-04-15T01:13:59.609Z,97.06
2023-04-15T01:14:59.574Z,97.06
2023-04-15T01:15:59.674Z,97.06
2023-04-15T01:16:59.539Z,96.95
2023-04-15T01:17:59.605Z,96.95
2023-04-15T01:18:59.745Z,96.95
2023-04-15T01:19:59.504Z,96.75
2023-04-15T01:20:59.489Z,96.54
2023-04-15T01:21:59.505Z,96.44
2023-04-15T01:22:59.470Z,96.44
2023-04-15T01:23:59.479Z,96.54
2023-04-15T01:24:59.426Z,96.54
2023-04-15T01:25:59.429Z,96.64
2023-04-15T01:26:59.410Z,96.50
2023-04-15T01:27:59.410Z,96.44
2023-04-15T01:28:59.644Z,96.39
2023-04-15T01:29:59.397Z,96.39
2023-04-15T01:30:59.346Z,96.50
2023-04-15T01:31:59.433Z,96.50
2023-04-15T01:32:59.386Z,96.60
2023-04-15T01:33:59.300Z,96.70
2023-04-15T01:34:59.357Z,96.60
2023-04-15T01:35:59.281Z,96.50
2023-04-15T01:36:59.274Z,96.50
2023-04-15T01:37:59.261Z,96.50
2023-04-15T01:38:59.545Z,96.60
2023-04-15T01:39:59.236Z,96.54
2023-04-15T01:40:59.239Z,96.64
2023-04-15T01:41:59.243Z,96.75
2023-04-15T01:42:59.203Z,96.75
2023-04-15T01:43:59.219Z,96.75
2023-04-15T01:44:59.168Z,96.85
2023-04-15T01:45:59.159Z,96.95
2023-04-15T01:46:59.226Z,96.95
2023-04-15T01:47:59.178Z,97.06
2023-04-15T01:48:59.372Z,97.16
2023-04-15T01:49:59.122Z,97.16
2023-04-15T01:50:59.104Z,97.37
2023-04-15T01:51:59.107Z,97.53
2023-04-15T01:52:59.063Z,97.53
2023-04-15T01:53:59.050Z,97.53
2023-04-15T01:54:59.019Z,97.43
2023-04-15T01:55:59.023Z,97.43
2023-04-15T01:56:59.000Z,97.33
2023-04-15T01:57:59.010Z,97.33
2023-04-15T01:58:59.231Z,97.22
2023-04-15T01:59:59.010Z,97.22
2023-04-15T02:00:58.995Z,97.22
2023-04-15T02:01:59.037Z,97.33
2023-04-15T02:02:59.010Z,97.43
2023-04-15T02:03:58.950Z,97.43
2023-04-15T02:04:58.976Z,97.43
2023-04-15T02:05:58.902Z,97.53
2023-04-15T02:06:58.953Z,97.53
2023-04-15T02:07:58.882Z,97.43
2023-04-15T02:08:59.099Z,97.53
2023-04-15T02:09:58.868Z,97.43
2023-04-15T02:10:58.819Z,97.43
2023-04-15T02:11:58.816Z,97.33
2023-04-15T02:12:58.824Z,97.33
2023-04-15T02:13:58.791Z,97.33
2023-04-15T02:14:58.787Z,97.22
2023-04-15T02:15:58.791Z,97.02
2023-04-15T02:16:58.836Z,97.02
2023-04-15T02:17:58.765Z,96.91
2023-04-15T02:18:58.851Z,96.95
2023-04-15T02:19:58.723Z,97.06
2023-04-15T02:20:59.059Z,97.06
2023-04-15T02:21:58.679Z,97.16
2023-04-15T02:22:58.677Z,97.16
2023-04-15T02:23:58.653Z,97.16
2023-04-15T02:24:58.656Z,97.16
2023-04-15T02:25:58.629Z,97.27
2023-04-15T02:26:58.602Z,97.27
2023-04-15T02:27:58.607Z,97.37
2023-04-15T02:28:58.847Z,97.37
2023-04-15T02:29:58.557Z,97.43
2023-04-15T02:30:58.574Z,97.53
2023-04-15T02:31:58.625Z,97.64
2023-04-15T02:32:58.617Z,97.64
2023-04-15T02:33:58.558Z,97.64
2023-04-15T02:34:58.513Z,97.64
2023-04-15T02:35:58.493Z,97.64
2023-04-15T02:36:58.481Z,97.64
2023-04-15T02:37:58.478Z,97.74
2023-04-15T02:38:58.528Z,97.85
2023-04-15T02:39:58.445Z,97.64
2023-04-15T02:40:58.430Z,97.33
2023-04-15T02:41:58.401Z,97.22
2023-04-15T02:42:58.410Z,97.12
2023-04-15T02:43:58.414Z,97.12
2023-04-15T02:44:58.365Z,97.12
2023-04-15T02:45:58.376Z,97.12
2023-04-15T02:46:58.366Z,97.22
2023-04-15T02:47:58.426Z,97.22
2023-04-15T02:48:58.377Z,97.22
2023-04-15T02:49:58.314Z,97.22
2023-04-15T02:50:58.282Z,97.22
2023-04-15T02:51:58.301Z,97.22
2023-04-15T02:52:58.258Z,97.22
2023-04-15T02:53:58.283Z,97.22
2023-04-15T02:54:58.226Z,97.22
2023-04-15T02:55:58.228Z,97.22
2023-04-15T02:56:58.226Z,97.33
2023-04-15T02:57:58.201Z,97.33
2023-04-15T02:58:58.217Z,97.33
2023-04-15T02:59:58.177Z,97.33
2023-04-15T03:00:58.178Z,97.43
2023-04-15T03:01:58.168Z,97.53
2023-04-15T03:02:58.347Z,97.64
2023-04-15T03:03:58.184Z,97.64
2023-04-15T03:04:58.111Z,97.74
2023-04-15T03:05:58.103Z,97.85
2023-04-15T03:06:58.093Z,97.95
2023-04-15T03:07:58.072Z,97.95
2023-04-15T03:08:58.050Z,98.05
2023-04-15T03:09:58.048Z,98.05
2023-04-15T03:10:58.072Z,98.05
2023-04-15T03:11:58.012Z,98.05
2023-04-15T03:12:58.011Z,98.05
2023-04-15T03:13:58.014Z,98.16
2023-04-15T03:14:57.982Z,98.16
2023-04-15T03:15:57.999Z,98.16
2023-04-15T03:16:57.937Z,98.05
2023-04-15T03:17:57.988Z,97.95
2023-04-15T03:18:57.947Z,97.74
2023-04-15T03:19:57.932Z,97.74
2023-04-15T03:20:57.883Z,97.74
2023-04-15T03:21:57.868Z,97.74
2023-04-15T03:22:57.852Z,97.74
2023-04-15T03:23:57.880Z,97.74
2023-04-15T03:24:57.840Z,97.85
2023-04-15T03:25:57.807Z,97.64
2023-04-15T03:26:57.808Z,97.64
2023-04-15T03:27:57.797Z,97.53
2023-04-15T03:28:57.784Z,97.53
2023-04-15T03:29:57.788Z,97.64
2023-04-15T03:30:57.748Z,97.74
2023-04-15T03:31:57.736Z,97.74
2023-04-15T03:32:57.807Z,97.85
2023-04-15T03:33:57.727Z,97.85
2023-04-15T03:34:57.754Z,97.85
2023-04-15T03:35:57.696Z,97.95
2023-04-15T03:36:57.673Z,97.95
2023-04-15T03:37:57.684Z,98.05
2023-04-15T03:38:57.643Z,98.16
2023-04-15T03:39:57.637Z,98.26
2023-04-15T03:40:57.622Z,98.36
2023-04-15T03:41:57.608Z,98.26
2023-04-15T03:42:57.647Z,98.36
2023-04-15T03:43:57.638Z,98.36
2023-04-15T03:44:57.591Z,98.26
2023-04-15T03:45:57.604Z,98.16
2023-04-15T03:46:57.546Z,98.26
2023-04-15T03:48:07.069Z,98.36
2023-04-15T03:48:57.545Z,98.26
2023-04-15T03:49:57.537Z,98.36
2023-04-15T03:50:57.511Z,98.26
2023-04-15T03:51:57.491Z,98.26
2023-04-15T03:52:57.469Z,98.16
2023-04-15T03:53:57.446Z,98.16
2023-04-15T03:54:57.476Z,98.05
2023-04-15T03:55:57.421Z,98.16
2023-04-15T03:56:57.405Z,98.16
2023-04-15T03:57:57.402Z,98.11
2023-04-15T03:58:57.416Z,98.11
2023-04-15T03:59:57.375Z,98.11
2023-04-15T04:00:57.352Z,98.00
2023-04-15T04:01:57.438Z,97.80
2023-04-15T04:02:57.490Z,97.95
2023-04-15T04:03:57.504Z,97.90
2023-04-15T04:04:57.299Z,97.90
2023-04-15T04:05:57.284Z,97.80
2023-04-15T04:06:57.285Z,97.69
2023-04-15T04:07:57.259Z,97.69
2023-04-15T04:08:57.281Z,97.69
2023-04-15T04:09:57.249Z,97.69
2023-04-15T04:10:57.265Z,97.69
2023-04-15T04:11:57.207Z,97.59
2023-04-15T04:12:57.190Z,97.59
2023-04-15T04:13:57.210Z,97.59
2023-04-15T04:14:57.160Z,97.49
2023-04-15T04:15:57.189Z,97.49
2023-04-15T04:16:57.224Z,97.49
2023-04-15T04:17:57.173Z,97.38
2023-04-15T04:18:57.178Z,97.28
2023-04-15T04:19:57.123Z,97.38
2023-04-15T04:20:57.115Z,97.38
2023-04-15T04:21:57.100Z,97.38
2023-04-15T04:22:57.063Z,97.43
2023-04-15T04:23:57.048Z,97.43
2023-04-15T04:24:57.056Z,97.53
2023-04-15T04:25:57.030Z,97.64
2023-04-15T04:26:57.001Z,97.64
2023-04-15T04:27:57.009Z,97.59
2023-04-15T04:28:56.986Z,97.43
2023-04-15T04:29:56.968Z,97.02
2023-04-15T04:30:56.999Z,96.60
2023-04-15T04:31:56.971Z,96.50
2023-04-15T04:32:57.020Z,96.50
2023-04-15T04:33:56.917Z,96.60
2023-04-15T04:34:56.903Z,96.60
2023-04-15T04:35:56.880Z,96.70
2023-04-15T04:36:56.855Z,96.91
2023-04-15T04:37:56.918Z,97.12
2023-04-15T04:38:56.848Z,97.22
2023-04-15T04:39:56.843Z,97.22
2023-04-15T04:40:56.806Z,97.12
2023-04-15T04:41:56.820Z,97.12
2023-04-15T04:42:56.835Z,97.12
2023-04-15T04:43:56.800Z,97.33
2023-04-15T04:44:56.769Z,97.53
2023-04-15T04:45:56.779Z,97.64
2023-04-15T04:46:56.756Z,97.64
2023-04-15T04:47:56.791Z,97.64
2023-04-15T04:48:56.708Z,97.74
2023-04-15T04:49:56.699Z,97.74
2023-04-15T04:50:56.670Z,97.74
2023-04-15T04:51:56.677Z,97.74
2023-04-15T04:52:56.667Z,97.74
2023-04-15T04:53:56.689Z,97.74
2023-04-15T04:54:56.635Z,97.85
2023-04-15T04:55:56.618Z,97.85
2023-04-15T04:56:56.613Z,97.85
2023-04-15T04:57:56.607Z,97.64
2023-04-15T04:58:56.618Z,97.64
2023-04-15T04:59:56.570Z,97.64
2023-04-15T05:00:56.588Z,97.64
2023-04-15T05:01:56.616Z,97.64
2023-04-15T05:02:56.660Z,97.64
2023-04-15T05:03:56.668Z,97.64
2023-04-15T05:04:56.512Z,97.64
2023-04-15T05:05:56.507Z,97.64
2023-04-15T05:06:56.480Z,97.74
2023-04-15T05:07:56.456Z,97.64
2023-04-15T05:08:56.499Z,97.59
2023-04-15T05:09:56.435Z,97.49
2023-04-15T05:10:56.425Z,97.49
2023-04-15T05:11:56.453Z,97.38
2023-04-15T05:12:56.401Z,97.28
2023-04-15T05:13:56.383Z,97.17
2023-04-15T05:14:56.372Z,96.97
2023-04-15T05:15:56.362Z,96.86
2023-04-15T05:16:56.332Z,96.86
2023-04-15T05:17:56.391Z,96.66
2023-04-15T05:18:56.315Z,96.66
2023-04-15T05:19:56.311Z,96.76
2023-04-15T05:20:56.303Z,96.86
2023-04-15T05:21:56.302Z,96.86
2023-04-15T05:22:56.248Z,96.66
2023-04-15T05:23:56.338Z,96.55
2023-04-15T05:24:56.245Z,96.55
2023-04-15T05:25:56.219Z,96.19
2023-04-15T05:26:56.231Z,95.98
2023-04-15T05:27:56.184Z,95.87
2023-04-15T05:28:56.171Z,96.19
2023-04-15T05:29:56.165Z,96.39
2023-04-15T05:30:56.185Z,96.70
2023-04-15T05:31:56.185Z,97.02
2023-04-15T05:32:56.162Z,97.07
2023-04-15T05:33:56.094Z,97.17
2023-04-15T05:34:56.080Z,97.28
2023-04-15T05:35:56.073Z,97.38
2023-04-15T05:36:56.088Z,97.49
2023-04-15T05:37:56.096Z,97.17
2023-04-15T05:38:56.065Z,97.07
2023-04-15T05:39:56.040Z,96.86
2023-04-15T05:40:56.012Z,96.66
2023-04-15T05:41:56.040Z,96.55
2023-04-15T05:42:56.010Z,96.66
2023-04-15T05:43:55.970Z,96.66
2023-04-15T05:44:55.966Z,96.76
2023-04-15T05:45:55.976Z,96.76
2023-04-15T05:46:55.942Z,96.76
2023-04-15T05:47:56.012Z,96.86
2023-04-15T05:48:56.618Z,96.86
2023-04-15T05:49:55.928Z,96.66
2023-04-15T05:50:55.890Z,96.34
2023-04-15T05:51:55.891Z,96.34
2023-04-15T05:52:55.849Z,96.45
2023-04-15T05:53:55.871Z,96.55
2023-04-15T05:54:55.840Z,96.66
2023-04-15T05:55:55.867Z,96.66
2023-04-15T05:56:55.807Z,96.76
2023-04-15T05:57:55.785Z,96.86
2023-04-15T05:58:55.813Z,96.97
2023-04-15T05:59:55.764Z,96.97
2023-04-15T06:00:55.809Z,96.86
2023-04-15T06:01:55.756Z,96.66
2023-04-15T06:02:55.774Z,95.93
2023-04-15T06:03:55.965Z,96.03
2023-04-15T06:04:55.725Z,96.14
2023-04-15T06:05:55.734Z,96.34
2023-04-15T06:06:55.671Z,96.55
2023-04-15T06:07:55.653Z,96.66
2023-04-15T06:08:55.636Z,96.55
2023-04-15T06:09:55.627Z,96.55
2023-04-15T06:10:55.634Z,96.24
2023-04-15T06:11:55.611Z,96.24
2023-04-15T06:12:55.600Z,95.83
2023-04-15T06:13:55.594Z,95.51
2023-04-15T06:14:55.606Z,95.00
2023-04-15T06:15:55.598Z,94.84
2023-04-15T06:16:55.547Z,94.63
2023-04-15T06:17:55.596Z,95.04
2023-04-15T06:18:55.509Z,95.56
2023-04-15T06:19:55.534Z,96.19
2023-04-15T06:20:55.500Z,96.19
2023-04-15T06:21:55.470Z,96.50
2023-04-15T06:22:55.456Z,96.70
2023-04-15T06:23:55.436Z,96.50
2023-04-15T06:24:55.489Z,96.39
2023-04-15T06:25:55.402Z,96.03
2023-04-15T06:26:55.476Z,96.03
2023-04-15T06:27:55.388Z,95.62
2023-04-15T06:28:55.374Z,95.62
2023-04-15T06:29:55.429Z,95.51
2023-04-15T06:30:55.384Z,95.20
2023-04-15T06:31:55.440Z,94.89
2023-04-15T06:32:55.352Z,95.00
2023-04-15T06:33:55.326Z,95.00
2023-04-15T06:34:55.293Z,94.68
2023-04-15T06:35:55.271Z,94.58
2023-04-15T06:36:55.285Z,94.85
2023-04-15T06:37:55.306Z,95.16
2023-04-15T06:38:55.256Z,95.26
2023-04-15T06:39:55.221Z,95.47
2023-04-15T06:40:55.203Z,95.57
2023-04-15T06:41:55.235Z,95.57
2023-04-15T06:42:55.174Z,95.68
2023-04-15T06:43:55.179Z,95.57
2023-04-15T06:44:55.163Z,95.47
2023-04-15T06:45:55.165Z,95.57
2023-04-15T06:46:55.156Z,95.47
2023-04-15T06:47:55.217Z,95.26
2023-04-15T06:48:55.099Z,94.54
2023-04-15T06:49:55.087Z,94.64
2023-04-15T06:50:55.068Z,94.74
2023-04-15T06:51:55.095Z,95.16
2023-04-15T06:52:55.076Z,95.43
2023-04-15T06:53:55.035Z,95.74
2023-04-15T06:54:55.018Z,96.15
2023-04-15T06:55:54.994Z,96.15
2023-04-15T06:56:55.008Z,95.84
2023-04-15T06:57:55.017Z,95.32
2023-04-15T06:58:54.999Z,95.32
2023-04-15T06:59:54.955Z,95.43
2023-04-15T07:00:54.958Z,95.32
2023-04-15T07:01:54.963Z,95.43
2023-04-15T07:02:54.951Z,95.32
2023-04-15T07:03:54.952Z,95.64
2023-04-15T07:04:54.878Z,95.84
2023-04-15T07:05:54.904Z,95.74
2023-04-15T07:06:54.854Z,95.53
2023-04-15T07:07:54.872Z,95.64
2023-04-15T07:08:54.829Z,94.91
2023-04-15T07:09:54.836Z,95.01
2023-04-15T07:10:54.933Z,94.87
2023-04-15T07:11:54.806Z,94.87
2023-04-15T07:12:54.777Z,95.07
2023-04-15T07:13:54.755Z,95.39
2023-04-15T07:14:54.753Z,95.59
2023-04-15T07:15:54.733Z,95.80
2023-04-15T07:16:54.786Z,95.70
2023-04-15T07:17:54.830Z,95.70
2023-04-15T07:18:54.701Z,95.80
2023-04-15T07:19:54.741Z,96.01
2023-04-15T07:20:54.700Z,96.31
2023-04-15T07:21:54.691Z,96.42
2023-04-15T07:22:54.651Z,96.42
2023-04-15T07:23:54.638Z,96.52
2023-04-15T07:24:54.639Z,96.52
2023-04-15T07:25:54.587Z,96.48
2023-04-15T07:26:54.615Z,96.48
2023-04-15T07:27:54.604Z,96.37
2023-04-15T07:28:54.579Z,96.27
2023-04-15T07:29:54.624Z,95.96
2023-04-15T07:30:54.634Z,95.70
2023-04-15T07:31:54.622Z,95.65
2023-04-15T07:32:54.649Z,95.49
2023-04-15T07:33:54.574Z,95.03
2023-04-15T07:34:54.600Z,94.97
2023-04-15T07:35:54.461Z,95.07
2023-04-15T07:36:54.606Z,95.24
2023-04-15T07:37:54.444Z,95.34
2023-04-15T07:38:54.436Z,95.34
2023-04-15T07:39:54.407Z,95.65
2023-04-15T07:40:54.407Z,95.86
2023-04-15T07:41:54.419Z,96.06
2023-04-15T07:42:54.446Z,96.27
2023-04-15T07:43:54.375Z,96.37
2023-04-15T07:44:54.365Z,96.58
2023-04-15T07:45:54.363Z,96.48
2023-04-15T07:46:54.328Z,96.27
2023-04-15T07:47:54.318Z,96.06
2023-04-15T07:48:54.332Z,95.75
2023-04-15T07:49:54.290Z,95.75
2023-04-15T07:50:54.281Z,95.54
2023-04-15T07:51:54.262Z,95.34
2023-04-15T07:52:54.257Z,95.03
2023-04-15T07:53:54.244Z,95.03
2023-04-15T07:54:54.232Z,95.14
2023-04-15T07:55:54.213Z,95.14
2023-04-15T07:56:54.245Z,95.34
2023-04-15T07:57:54.187Z,95.34
2023-04-15T07:58:54.198Z,95.44
2023-04-15T07:59:54.150Z,95.75
2023-04-15T08:00:54.126Z,95.86
2023-04-15T08:01:54.210Z,95.65
2023-04-15T08:02:54.217Z,95.59
2023-04-15T08:03:54.186Z,95.39
2023-04-15T08:04:54.171Z,95.75
2023-04-15T08:05:54.072Z,96.06
2023-04-15T08:06:54.057Z,95.75
2023-04-15T08:07:54.086Z,95.96
2023-04-15T08:08:54.031Z,96.06
2023-04-15T08:09:54.023Z,95.44
2023-04-15T08:10:54.022Z,95.34
2023-04-15T08:11:53.990Z,95.14
2023-04-15T08:12:53.991Z,94.82
2023-04-15T08:13:53.969Z,95.14
2023-04-15T08:14:54.025Z,94.93
2023-04-15T08:15:53.990Z,95.34
2023-04-15T08:16:53.938Z,95.40
2023-04-15T08:17:54.035Z,94.68
2023-04-15T08:18:53.950Z,93.43
2023-04-15T08:19:53.884Z,91.88
2023-04-15T08:20:53.861Z,92.50
2023-04-15T08:21:53.916Z,92.40
2023-04-15T08:22:53.842Z,92.81
2023-04-15T08:23:53.829Z,91.57
2023-04-15T08:24:53.811Z,91.88
2023-04-15T08:25:53.849Z,91.82
2023-04-15T08:26:53.794Z,90.78
2023-04-15T08:27:53.787Z,91.09
2023-04-15T08:28:53.767Z,92.34
2023-04-15T08:29:53.743Z,92.44
2023-04-15T08:30:53.723Z,92.13
2023-04-15T08:31:53.852Z,92.76
2023-04-15T08:32:53.733Z,91.72
2023-04-15T08:33:53.724Z,91.41
2023-04-15T08:34:53.699Z,91.30
2023-04-15T08:35:53.687Z,91.30
2023-04-15T08:36:53.754Z,91.51
2023-04-15T08:37:53.672Z,91.82
2023-04-15T08:38:53.636Z,91.93
2023-04-15T08:39:53.621Z,91.82
2023-04-15T08:40:53.610Z,92.13
2023-04-15T08:41:53.572Z,92.24
2023-04-15T08:42:53.614Z,92.50
2023-04-15T08:43:53.621Z,92.81
2023-04-15T08:44:53.543Z,91.67
2023-04-15T08:45:53.537Z,92.19
2023-04-15T08:46:53.577Z,91.26
2023-04-15T08:47:53.560Z,91.67
2023-04-15T08:48:53.489Z,92.40
2023-04-15T08:49:53.472Z,93.02
2023-04-15T08:50:53.451Z,93.43
2023-04-15T08:51:53.486Z,93.74
2023-04-15T08:52:53.458Z,94.47
2023-04-15T08:53:53.432Z,94.06
2023-04-15T08:54:53.492Z,94.06
2023-04-15T08:55:53.425Z,93.74
2023-04-15T08:56:53.416Z,94.37
2023-04-15T08:57:53.376Z,94.16
2023-04-15T08:58:53.362Z,94.63
2023-04-15T08:59:53.348Z,94.73
2023-04-15T09:00:53.391Z,94.32
2023-04-15T09:01:53.364Z,94.43
2023-04-15T09:02:53.381Z,95.10
2023-04-15T09:03:53.398Z,94.59
2023-04-15T09:04:53.276Z,93.55
2023-04-15T09:05:53.394Z,93.04
2023-04-15T09:06:53.255Z,93.45
2023-04-15T09:07:53.240Z,93.76
2023-04-15T09:08:53.247Z,92.93
2023-04-15T09:09:53.211Z,91.90
2023-04-15T09:10:53.273Z,92.83
2023-04-15T09:11:53.202Z,92.32
2023-04-15T09:12:53.193Z,92.42
2023-04-15T09:13:53.197Z,92.72
2023-04-15T09:14:53.145Z,91.90
2023-04-15T09:15:53.142Z,91.59
2023-04-15T09:16:53.186Z,90.77
2023-04-15T09:17:53.192Z,90.97
2023-04-15T09:18:53.090Z,91.59
2023-04-15T09:19:53.077Z,90.93
2023-04-15T09:20:53.056Z,89.52
2023-04-15T09:21:53.043Z,90.31
2023-04-15T09:22:53.063Z,89.28
2023-04-15T09:23:53.009Z,89.01
2023-04-15T09:24:53.005Z,89.28
2023-04-15T09:25:52.985Z,88.76
2023-04-15T09:26:53.002Z,89.48
2023-04-15T09:27:52.956Z,89.89
2023-04-15T09:28:53.007Z,90.20
2023-04-15T09:29:52.954Z,89.48
2023-04-15T09:30:52.946Z,88.34
2023-04-15T09:31:52.936Z,87.62
2023-04-15T09:32:53.024Z,88.14
2023-04-15T09:33:52.886Z,89.28
2023-04-15T09:34:52.882Z,89.07
2023-04-15T09:35:52.896Z,89.17
2023-04-15T09:36:52.842Z,90.20
2023-04-15T09:37:52.868Z,89.79
2023-04-15T09:38:52.850Z,88.76
2023-04-15T09:39:52.802Z,88.24
2023-04-15T09:40:52.832Z,87.93
2023-04-15T09:41:52.792Z,88.04
2023-04-15T09:42:52.801Z,88.45
2023-04-15T09:43:52.744Z,89.38
2023-04-15T09:44:52.743Z,89.48
2023-04-15T09:45:52.753Z,89.69
2023-04-15T09:46:52.700Z,90.00
2023-04-15T09:47:52.745Z,90.62
2023-04-15T09:48:52.741Z,90.20
2023-04-15T09:49:52.731Z,90.93
2023-04-15T09:50:52.667Z,90.62
2023-04-15T09:52:04.516Z,90.52
2023-04-15T09:52:52.634Z,89.69
2023-04-15T09:53:52.644Z,90.41
2023-04-15T09:54:52.596Z,90.83
2023-04-15T09:55:52.655Z,90.20
2023-04-15T09:56:52.613Z,91.07
2023-04-15T09:57:52.589Z,90.97
2023-04-15T09:58:52.550Z,90.97
2023-04-15T09:59:52.586Z,89.22
2023-04-15T10:00:52.545Z,90.25
2023-04-15T10:01:52.639Z,90.87
2023-04-15T10:02:52.787Z,90.97
2023-04-15T10:03:52.705Z,89.69
2023-04-15T10:04:52.488Z,89.62
2023-04-15T10:05:52.498Z,89.94
2023-04-15T10:06:52.450Z,89.22
2023-04-15T10:07:52.447Z,89.11
2023-04-15T10:08:52.441Z,90.04
2023-04-15T10:09:52.434Z,90.10
2023-04-15T10:10:52.384Z,90.31
2023-04-15T10:11:52.392Z,90.31
2023-04-15T10:12:52.360Z,89.89
2023-04-15T10:13:52.347Z,90.10
2023-04-15T10:14:52.379Z,89.28
2023-04-15T10:15:52.370Z,88.76
2023-04-15T10:16:52.326Z,88.55
2023-04-15T10:17:52.335Z,88.86
2023-04-15T10:18:52.296Z,88.86
2023-04-15T10:19:52.303Z,89.79
2023-04-15T10:20:52.293Z,87.93
2023-04-15T10:21:52.250Z,88.86
2023-04-15T10:22:52.220Z,89.07
2023-04-15T10:23:52.225Z,88.65
2023-04-15T10:24:52.205Z,88.14
2023-04-15T10:25:52.216Z,88.34
2023-04-15T10:26:52.177Z,88.86
2023-04-15T10:27:52.150Z,87.21
2023-04-15T10:28:52.144Z,87.68
2023-04-15T10:29:52.151Z,88.51
2023-04-15T10:30:52.196Z,87.79
2023-04-15T10:31:52.129Z,87.99
2023-04-15T10:32:52.142Z,88.51
2023-04-15T10:33:52.129Z,88.20
2023-04-15T10:34:54.319Z,88.20
2023-04-15T10:35:52.086Z,87.27
2023-04-15T10:36:52.045Z,87.48
2023-04-15T10:37:52.023Z,87.48
2023-04-15T10:38:52.025Z,87.37
2023-04-15T10:39:52.001Z,87.02
2023-04-15T10:40:52.010Z,86.92
2023-04-15T10:41:51.962Z,86.51
2023-04-15T10:42:51.959Z,87.02
2023-04-15T10:43:51.954Z,86.92
2023-04-15T10:44:51.974Z,87.13
2023-04-15T10:45:51.962Z,87.85
2023-04-15T10:46:52.037Z,86.30
2023-04-15T10:47:51.983Z,86.82
2023-04-15T10:48:51.887Z,86.41
2023-04-15T10:49:51.957Z,85.06
2023-04-15T10:50:51.857Z,85.64
2023-04-15T10:51:51.912Z,85.95
2023-04-15T10:52:51.858Z,84.51
2023-04-15T10:56:18.818Z,84.92
2023-04-15T10:56:24.173Z,84.41
2023-04-15T10:57:24.162Z,83.99
2023-04-15T10:58:24.196Z,83.48
2023-04-15T10:59:24.170Z,82.96
2023-04-15T11:00:24.187Z,83.78
2023-04-15T11:01:24.170Z,83.93
2023-04-15T11:02:24.349Z,84.61
2023-04-15T11:03:24.184Z,84.20
2023-04-15T11:04:24.242Z,84.41
2023-04-15T11:05:24.090Z,84.20
2023-04-15T11:06:24.090Z,84.51
2023-04-15T11:07:24.028Z,84.51
2023-04-15T11:08:24.014Z,84.72
2023-04-15T11:09:24.037Z,84.61
2023-04-15T11:10:23.995Z,85.13
2023-04-15T11:11:23.976Z,84.81
2023-04-15T11:12:23.980Z,83.58
2023-04-15T11:13:23.965Z,83.48
2023-04-15T11:14:23.993Z,83.89
2023-04-15T11:15:23.928Z,84.20
2023-04-15T11:16:24.006Z,84.20
2023-04-15T11:17:23.940Z,82.96
2023-04-15T11:18:23.906Z,82.75
2023-04-15T11:19:23.868Z,83.27
2023-04-15T11:20:23.885Z,83.89
2023-04-15T11:21:23.871Z,83.17
2023-04-15T11:22:23.822Z,83.58
2023-04-15T11:23:23.860Z,84.20
2023-04-15T11:24:23.810Z,84.51
2023-04-15T11:25:23.781Z,85.02
2023-04-15T11:26:23.769Z,84.51
2023-04-15T11:27:23.749Z,84.72
2023-04-15T11:28:23.757Z,85.39
2023-04-15T11:29:23.744Z,86.22
2023-04-15T11:30:23.849Z,86.32
2023-04-15T11:31:23.752Z,86.32
2023-04-15T11:32:23.736Z,86.57
2023-04-15T11:33:23.730Z,86.98
2023-04-15T11:34:23.673Z,86.78
2023-04-15T11:35:23.653Z,86.98
2023-04-15T11:36:23.639Z,87.71
2023-04-15T11:37:23.628Z,88.22
2023-04-15T11:38:23.636Z,88.32
2023-04-15T11:39:23.607Z,88.53
2023-04-15T11:40:23.580Z,88.02
2023-04-15T11:41:23.588Z,87.34
2023-04-15T11:42:23.562Z,87.54
2023-04-15T11:43:23.562Z,87.71
2023-04-15T11:44:23.552Z,88.02
2023-04-15T11:45:23.523Z,87.92
2023-04-15T11:46:23.527Z,87.54
2023-04-15T11:47:23.550Z,87.95
2023-04-15T11:48:23.469Z,88.71
2023-04-15T11:49:23.495Z,88.61
2023-04-15T11:50:23.626Z,88.82
2023-04-15T11:51:23.442Z,89.95
2023-04-15T11:52:23.423Z,89.95
2023-04-15T11:53:23.452Z,90.89
2023-04-15T11:54:23.432Z,89.44
2023-04-15T11:55:23.397Z,88.92
2023-04-15T11:56:23.363Z,89.54
2023-04-15T11:57:23.354Z,89.95
2023-04-15T11:58:23.365Z,90.64
2023-04-15T11:59:26.322Z,90.43
2023-04-15T12:00:23.343Z,87.95
2023-04-15T12:01:23.316Z,87.85
2023-04-15T12:02:23.381Z,88.57
2023-04-15T12:03:23.562Z,88.57
2023-04-15T12:04:25.186Z,88.84
2023-04-15T12:05:23.329Z,90.08
2023-04-15T12:06:23.256Z,89.67
2023-04-15T12:07:23.232Z,89.56
2023-04-15T12:08:23.210Z,89.67
2023-04-15T12:09:23.243Z,89.36
2023-04-15T12:10:23.180Z,88.18
2023-04-15T12:11:23.197Z,87.66
2023-04-15T12:12:23.147Z,88.29
2023-04-15T12:13:23.135Z,88.59
2023-04-15T12:14:23.117Z,86.32
2023-04-15T12:15:23.147Z,87.15
2023-04-15T12:16:23.226Z,86.94
2023-04-15T12:17:23.137Z,86.12
2023-04-15T12:18:23.072Z,85.91
2023-04-15T12:19:23.054Z,86.12
2023-04-15T12:20:23.046Z,85.91
2023-04-15T12:21:23.062Z,84.67
2023-04-15T12:22:23.049Z,83.64
2023-04-15T12:23:23.004Z,84.36
2023-04-15T12:24:23.099Z,83.85
2023-04-15T12:25:22.974Z,83.75
2023-04-15T12:26:22.979Z,84.12
2023-04-15T12:27:22.964Z,84.74
2023-04-15T12:28:23.007Z,83.61
2023-04-15T12:29:22.932Z,83.09
2023-04-15T12:30:22.915Z,83.29
2023-04-15T12:31:22.934Z,82.89
2023-04-15T12:32:22.949Z,82.57
2023-04-15T12:33:22.878Z,82.47
2023-04-15T12:34:22.892Z,83.61
2023-04-15T12:35:22.898Z,83.40
2023-04-15T12:36:22.831Z,83.09
2023-04-15T12:37:22.824Z,83.91
2023-04-15T12:38:22.828Z,83.50
2023-04-15T12:39:22.791Z,82.57
2023-04-15T12:40:22.820Z,82.98
2023-04-15T12:41:22.764Z,83.19
2023-04-15T12:42:22.800Z,84.33
2023-04-15T12:43:22.732Z,83.50
2023-04-15T12:44:22.749Z,82.78
2023-04-15T12:45:22.732Z,83.40
2023-04-15T12:46:22.749Z,82.78
2023-04-15T12:47:22.707Z,83.71
2023-04-15T12:48:22.675Z,83.50
2023-04-15T12:49:22.650Z,82.57
2023-04-15T12:50:22.673Z,83.19
2023-04-15T12:51:22.645Z,82.98
2023-04-15T12:52:22.634Z,83.29
2023-04-15T12:53:22.605Z,83.61